sensor_id;sensor_type;location;lat;lon;timestamp;pressure;altitude;pressure_sealevel;temperature;humidity
73422;BME280;61637;47.760;-122.022;2023-05-07T00:00:01;101591.7;;;13.3;unknown
73422;BME280;61637;47.760;-122.022;2023-05-07T00:02:01;101591.7;;;13.2;unknown
73422;BME280;61637;47.760;-122.022;2023-05-07T00:04:01;101591.7;;;13.1;unknown
73422;BME280;61637;47.760;-122.022;2023-05-07T00:06:01;101591.7;;;13.1;unknown
73422;BME280;61637;47.760;-122.022;2023-05-07T00:08:01;101591.7;;;13.1;unknown
73422;BME280;61637;47.760;-122.022;2023-05-07T00:10:01;101591.7;;;13.0;unknown
73422;BME280;61637;47.760;-122.022;2023-05-07T00:12:01;101591.7;;;13.0;unknown
73422;BME280;61637;47.760;-122.022;2023-05-07T00:14:01;101591.7;;;12.9;unknown
73422;BME280;61637;47.760;-122.022;2023-05-07T00:16:01;101591.7;;;12.9;unknown
73422;BME280;61637;47.760;-122.022;2023-05-07T00:18:01;101591.7;;;12.8;unknown
73422;BME280;61637;47.760;-122.022;2023-05-07T00:20:01;101591.7;;;12.7;unknown
73422;BME280;61637;47.760;-122.022;2023-05-07T00:22:01;101591.7;;;12.7;unknown
73422;BME280;61637;47.760;-122.022;2023-05-07T00:24:01;101591.7;;;12.7;unknown
73422;BME280;61637;47.760;-122.022;2023-05-07T00:26:01;101591.7;;;12.6;unknown
73422;BME280;61637;47.760;-122.022;2023-05-07T00:28:01;101591.7;;;12.6;unknown
73422;BME280;61637;47.760;-122.022;2023-05-07T00:30:01;101591.7;;;12.6;unknown
73422;BME280;61637;47.760;-122.022;2023-05-07T00:32:01;101591.7;;;12.5;unknown
73422;BME280;61637;47.760;-122.022;2023-05-07T00:34:01;101591.7;;;12.5;unknown
73422;BME280;61637;47.760;-122.022;2023-05-07T00:36:01;101591.7;;;12.5;unknown
73422;BME280;61637;47.760;-122.022;2023-05-07T00:38:01;101591.7;;;12.5;unknown
73422;BME280;61637;47.760;-122.022;2023-05-07T00:40:01;101591.7;;;12.4;unknown
73422;BME280;61637;47.760;-122.022;2023-05-07T00:42:01;101591.7;;;12.4;unknown
73422;BME280;61637;47.760;-122.022;2023-05-07T00:44:01;101591.7;;;12.4;unknown
73422;BME280;61637;47.760;-122.022;2023-05-07T00:46:01;101591.7;;;12.4;unknown
73422;BME280;61637;47.760;-122.022;2023-05-07T00:48:01;101591.7;;;12.4;unknown
73422;BME280;61637;47.760;-122.022;2023-05-07T00:50:01;101591.7;;;12.3;unknown
73422;BME280;61637;47.760;-122.022;2023-05-07T00:52:01;101591.7;;;12.3;unknown
73422;BME280;61637;47.760;-122.022;2023-05-07T00:54:01;101591.7;;;12.3;unknown
73422;BME280;61637;47.760;-122.022;2023-05-07T00:56:01;101591.7;;;12.3;unknown
73422;BME280;61637;47.760;-122.022;2023-05-07T00:58:01;101591.7;;;12.2;unknown
73422;BME280;61637;47.760;-122.022;2023-05-07T01:00:01;101591.7;;;12.3;unknown
73422;BME280;61637;47.760;-122.022;2023-05-07T01:02:01;101591.7;;;12.3;unknown
73422;BME280;61637;47.760;-122.022;2023-05-07T01:04:01;101591.7;;;12.3;unknown
73422;BME280;61637;47.760;-122.022;2023-05-07T01:06:01;101591.7;;;12.3;unknown
73422;BME280;61637;47.760;-122.022;2023-05-07T01:08:01;101591.7;;;12.3;unavailable
73422;BME280;61637;47.760;-122.022;2023-05-07T01:10:01;101591.7;;;12.3;unknown
73422;BME280;61637;47.760;-122.022;2023-05-07T01:12:01;101591.7;;;12.3;unknown
73422;BME280;61637;47.760;-122.022;2023-05-07T01:14:01;101591.7;;;12.4;unknown
73422;BME280;61637;47.760;-122.022;2023-05-07T01:16:01;101591.7;;;12.3;unknown
73422;BME280;61637;47.760;-122.022;2023-05-07T01:18:01;101591.7;;;12.3;unknown
73422;BME280;61637;47.760;-122.022;2023-05-07T01:20:01;101591.7;;;12.3;unknown
73422;BME280;61637;47.760;-122.022;2023-05-07T01:22:02;101591.7;;;12.3;unknown
73422;BME280;61637;47.760;-122.022;2023-05-07T01:24:01;101591.7;;;12.3;unknown
73422;BME280;61637;47.760;-122.022;2023-05-07T01:26:01;101591.7;;;12.2;unknown
73422;BME280;61637;47.760;-122.022;2023-05-07T01:28:01;101591.7;;;12.2;unknown
73422;BME280;61637;47.760;-122.022;2023-05-07T01:30:01;101591.7;;;12.2;unknown
73422;BME280;61637;47.760;-122.022;2023-05-07T01:32:01;101591.7;;;12.2;unknown
73422;BME280;61637;47.760;-122.022;2023-05-07T01:34:01;101591.7;;;12.2;unknown
73422;BME280;61637;47.760;-122.022;2023-05-07T01:36:01;101591.7;;;12.2;unknown
73422;BME280;61637;47.760;-122.022;2023-05-07T01:38:01;101591.7;;;12.2;unknown
73422;BME280;61637;47.760;-122.022;2023-05-07T01:40:01;101591.7;;;12.3;unknown
73422;BME280;61637;47.760;-122.022;2023-05-07T01:42:01;101591.7;;;12.3;unknown
73422;BME280;61637;47.760;-122.022;2023-05-07T01:44:01;101591.7;;;12.3;unknown
73422;BME280;61637;47.760;-122.022;2023-05-07T01:46:01;101591.7;;;12.4;unknown
73422;BME280;61637;47.760;-122.022;2023-05-07T01:48:01;101591.7;;;12.4;unknown
73422;BME280;61637;47.760;-122.022;2023-05-07T01:50:01;101591.7;;;12.4;unknown
73422;BME280;61637;47.760;-122.022;2023-05-07T01:52:01;101591.7;;;12.4;unknown
73422;BME280;61637;47.760;-122.022;2023-05-07T01:54:01;101591.7;;;12.5;unknown
73422;BME280;61637;47.760;-122.022;2023-05-07T01:56:01;101591.7;;;12.4;unknown
73422;BME280;61637;47.760;-122.022;2023-05-07T01:58:01;101591.7;;;12.4;unknown
73422;BME280;61637;47.760;-122.022;2023-05-07T02:00:01;101591.7;;;12.4;unknown
73422;BME280;61637;47.760;-122.022;2023-05-07T02:02:01;101591.7;;;12.4;unknown
73422;BME280;61637;47.760;-122.022;2023-05-07T02:04:01;101591.7;;;12.3;unknown
73422;BME280;61637;47.760;-122.022;2023-05-07T02:06:01;101591.7;;;12.3;unknown
73422;BME280;61637;47.760;-122.022;2023-05-07T02:08:01;101591.7;;;12.2;unknown
73422;BME280;61637;47.760;-122.022;2023-05-07T02:10:01;101591.7;;;12.2;unknown
73422;BME280;61637;47.760;-122.022;2023-05-07T02:12:01;101591.7;;;12.2;unknown
73422;BME280;61637;47.760;-122.022;2023-05-07T02:14:01;101591.7;;;12.1;unknown
73422;BME280;61637;47.760;-122.022;2023-05-07T02:16:01;101591.7;;;12.1;unknown
73422;BME280;61637;47.760;-122.022;2023-05-07T02:18:02;101591.7;;;12.1;unknown
73422;BME280;61637;47.760;-122.022;2023-05-07T02:20:01;101591.7;;;12.1;unknown
73422;BME280;61637;47.760;-122.022;2023-05-07T02:22:01;101591.7;;;12.1;unknown
73422;BME280;61637;47.760;-122.022;2023-05-07T02:24:01;101591.7;;;12.0;unknown
73422;BME280;61637;47.760;-122.022;2023-05-07T02:26:01;101591.7;;;11.9;unknown
73422;BME280;61637;47.760;-122.022;2023-05-07T02:28:01;101591.7;;;11.9;unknown
73422;BME280;61637;47.760;-122.022;2023-05-07T02:30:01;101591.7;;;11.8;unknown
73422;BME280;61637;47.760;-122.022;2023-05-07T02:32:01;101591.7;;;11.8;unknown
73422;BME280;61637;47.760;-122.022;2023-05-07T02:34:01;101591.7;;;11.8;unknown
73422;BME280;61637;47.760;-122.022;2023-05-07T02:36:05;101591.7;;;11.7;unknown
73422;BME280;61637;47.760;-122.022;2023-05-07T02:38:01;101591.7;;;11.7;unknown
73422;BME280;61637;47.760;-122.022;2023-05-07T02:40:01;101591.7;;;11.6;unknown
73422;BME280;61637;47.760;-122.022;2023-05-07T02:42:01;101591.7;;;11.6;unknown
73422;BME280;61637;47.760;-122.022;2023-05-07T02:44:01;101591.7;;;11.6;unknown
73422;BME280;61637;47.760;-122.022;2023-05-07T02:46:01;101591.7;;;11.6;unknown
73422;BME280;61637;47.760;-122.022;2023-05-07T02:48:01;101591.7;;;11.6;unknown
73422;BME280;61637;47.760;-122.022;2023-05-07T02:50:01;101591.7;;;11.5;unknown
73422;BME280;61637;47.760;-122.022;2023-05-07T02:52:01;101591.7;;;11.4;unknown
73422;BME280;61637;47.760;-122.022;2023-05-07T02:54:01;101591.7;;;11.4;unknown
73422;BME280;61637;47.760;-122.022;2023-05-07T02:56:01;101591.7;;;11.4;unknown
73422;BME280;61637;47.760;-122.022;2023-05-07T02:58:01;101591.7;;;11.4;unknown
73422;BME280;61637;47.760;-122.022;2023-05-07T03:00:09;101591.7;;;11.3;unknown
73422;BME280;61637;47.760;-122.022;2023-05-07T03:02:01;101591.7;;;11.4;unknown
73422;BME280;61637;47.760;-122.022;2023-05-07T03:04:01;101591.7;;;11.3;unknown
73422;BME280;61637;47.760;-122.022;2023-05-07T03:06:01;101591.7;;;11.3;unknown
73422;BME280;61637;47.760;-122.022;2023-05-07T03:08:01;101591.7;;;11.3;unknown
73422;BME280;61637;47.760;-122.022;2023-05-07T03:10:01;101591.7;;;11.3;unknown
73422;BME280;61637;47.760;-122.022;2023-05-07T03:12:01;101591.7;;;11.3;unknown
73422;BME280;61637;47.760;-122.022;2023-05-07T03:14:01;101591.7;;;11.2;unknown
73422;BME280;61637;47.760;-122.022;2023-05-07T03:16:01;101591.7;;;11.2;unknown
73422;BME280;61637;47.760;-122.022;2023-05-07T03:18:01;101591.7;;;11.2;unknown
73422;BME280;61637;47.760;-122.022;2023-05-07T03:20:01;101591.7;;;11.2;unknown
73422;BME280;61637;47.760;-122.022;2023-05-07T03:22:01;101591.7;;;11.2;unknown
73422;BME280;61637;47.760;-122.022;2023-05-07T03:24:01;101591.7;;;11.2;unknown
73422;BME280;61637;47.760;-122.022;2023-05-07T03:26:01;101591.7;;;11.1;unknown
73422;BME280;61637;47.760;-122.022;2023-05-07T03:28:01;101591.7;;;11.1;unknown
73422;BME280;61637;47.760;-122.022;2023-05-07T03:30:01;101591.7;;;11.1;unknown
73422;BME280;61637;47.760;-122.022;2023-05-07T03:32:01;101591.7;;;11.1;unknown
73422;BME280;61637;47.760;-122.022;2023-05-07T03:34:01;101591.7;;;10.9;unknown
73422;BME280;61637;47.760;-122.022;2023-05-07T03:36:01;101591.7;;;10.9;unknown
73422;BME280;61637;47.760;-122.022;2023-05-07T03:38:01;101591.7;;;10.9;unknown
73422;BME280;61637;47.760;-122.022;2023-05-07T03:40:01;101591.7;;;10.8;unknown
73422;BME280;61637;47.760;-122.022;2023-05-07T03:42:01;101591.7;;;10.8;unknown
73422;BME280;61637;47.760;-122.022;2023-05-07T03:44:01;101591.7;;;10.8;unknown
73422;BME280;61637;47.760;-122.022;2023-05-07T03:46:01;101591.7;;;10.8;unknown
73422;BME280;61637;47.760;-122.022;2023-05-07T03:48:01;101591.7;;;10.8;unknown
73422;BME280;61637;47.760;-122.022;2023-05-07T03:50:01;101591.7;;;10.8;unknown
73422;BME280;61637;47.760;-122.022;2023-05-07T03:52:01;101591.7;;;10.7;unknown
73422;BME280;61637;47.760;-122.022;2023-05-07T03:54:01;101591.7;;;10.7;unknown
73422;BME280;61637;47.760;-122.022;2023-05-07T03:56:01;101591.7;;;10.7;unknown
73422;BME280;61637;47.760;-122.022;2023-05-07T03:58:01;101591.7;;;10.7;unknown
73422;BME280;61637;47.760;-122.022;2023-05-07T04:00:01;101591.7;;;10.7;unknown
73422;BME280;61637;47.760;-122.022;2023-05-07T04:02:01;101591.7;;;10.7;unknown
73422;BME280;61637;47.760;-122.022;2023-05-07T04:04:01;101591.7;;;10.7;unknown
73422;BME280;61637;47.760;-122.022;2023-05-07T04:06:01;101591.7;;;10.7;unknown
73422;BME280;61637;47.760;-122.022;2023-05-07T04:08:01;101591.7;;;10.7;unknown
73422;BME280;61637;47.760;-122.022;2023-05-07T04:10:01;101591.7;;;10.7;unknown
73422;BME280;61637;47.760;-122.022;2023-05-07T04:12:01;101591.7;;;10.6;unknown
73422;BME280;61637;47.760;-122.022;2023-05-07T04:14:01;101591.7;;;10.6;unknown
73422;BME280;61637;47.760;-122.022;2023-05-07T04:16:01;101591.7;;;10.6;unknown
73422;BME280;61637;47.760;-122.022;2023-05-07T04:18:01;101591.7;;;10.6;unknown
73422;BME280;61637;47.760;-122.022;2023-05-07T04:20:01;101591.7;;;10.6;unknown
73422;BME280;61637;47.760;-122.022;2023-05-07T04:22:01;101591.7;;;10.6;unknown
73422;BME280;61637;47.760;-122.022;2023-05-07T04:24:02;101591.7;;;10.6;unknown
73422;BME280;61637;47.760;-122.022;2023-05-07T04:26:01;101591.7;;;10.6;unknown
73422;BME280;61637;47.760;-122.022;2023-05-07T04:28:01;101591.7;;;10.6;unknown
73422;BME280;61637;47.760;-122.022;2023-05-07T04:30:01;101591.7;;;10.6;unknown
73422;BME280;61637;47.760;-122.022;2023-05-07T04:32:01;101591.7;;;10.6;unknown
73422;BME280;61637;47.760;-122.022;2023-05-07T04:34:01;101591.7;;;10.5;unknown
73422;BME280;61637;47.760;-122.022;2023-05-07T04:36:01;101591.7;;;10.5;unknown
73422;BME280;61637;47.760;-122.022;2023-05-07T04:38:01;101591.7;;;10.5;unknown
73422;BME280;61637;47.760;-122.022;2023-05-07T04:40:01;101591.7;;;10.4;unknown
73422;BME280;61637;47.760;-122.022;2023-05-07T04:42:01;101591.7;;;10.4;unknown
73422;BME280;61637;47.760;-122.022;2023-05-07T04:44:01;101591.7;;;10.5;unknown
73422;BME280;61637;47.760;-122.022;2023-05-07T04:46:01;101591.7;;;10.4;unknown
73422;BME280;61637;47.760;-122.022;2023-05-07T04:48:01;101591.7;;;10.4;unknown
73422;BME280;61637;47.760;-122.022;2023-05-07T04:50:01;101591.7;;;10.4;unknown
73422;BME280;61637;47.760;-122.022;2023-05-07T04:52:01;101591.7;;;10.4;unknown
73422;BME280;61637;47.760;-122.022;2023-05-07T04:54:01;101591.7;;;10.4;unknown
73422;BME280;61637;47.760;-122.022;2023-05-07T04:56:01;101591.7;;;10.4;unknown
73422;BME280;61637;47.760;-122.022;2023-05-07T04:58:01;101591.7;;;10.4;unknown
73422;BME280;61637;47.760;-122.022;2023-05-07T05:00:01;101591.7;;;10.4;unknown
73422;BME280;61637;47.760;-122.022;2023-05-07T05:02:01;101591.7;;;10.4;unknown
73422;BME280;61637;47.760;-122.022;2023-05-07T05:04:01;101591.7;;;10.4;unknown
73422;BME280;61637;47.760;-122.022;2023-05-07T05:06:01;101591.7;;;10.4;unknown
73422;BME280;61637;47.760;-122.022;2023-05-07T05:08:01;101591.7;;;10.4;unknown
73422;BME280;61637;47.760;-122.022;2023-05-07T05:10:01;101591.7;;;10.4;unknown
73422;BME280;61637;47.760;-122.022;2023-05-07T05:12:01;101591.7;;;10.4;unknown
73422;BME280;61637;47.760;-122.022;2023-05-07T05:14:01;101591.7;;;10.4;unknown
73422;BME280;61637;47.760;-122.022;2023-05-07T05:16:01;101591.7;;;10.4;unknown
73422;BME280;61637;47.760;-122.022;2023-05-07T05:18:01;101591.7;;;10.4;unknown
73422;BME280;61637;47.760;-122.022;2023-05-07T05:20:01;101591.7;;;10.4;unknown
73422;BME280;61637;47.760;-122.022;2023-05-07T05:22:01;101591.7;;;10.4;unknown
73422;BME280;61637;47.760;-122.022;2023-05-07T05:24:01;101591.7;;;10.4;unknown
73422;BME280;61637;47.760;-122.022;2023-05-07T05:26:01;101591.7;;;10.4;unknown
73422;BME280;61637;47.760;-122.022;2023-05-07T05:28:01;101591.7;;;10.4;unknown
73422;BME280;61637;47.760;-122.022;2023-05-07T05:30:01;101591.7;;;10.4;unknown
73422;BME280;61637;47.760;-122.022;2023-05-07T05:32:01;101591.7;;;10.3;unknown
73422;BME280;61637;47.760;-122.022;2023-05-07T05:34:01;101591.7;;;10.3;unknown
73422;BME280;61637;47.760;-122.022;2023-05-07T05:36:01;101591.7;;;10.3;unknown
73422;BME280;61637;47.760;-122.022;2023-05-07T05:38:01;101591.7;;;10.3;unknown
73422;BME280;61637;47.760;-122.022;2023-05-07T05:40:01;101591.7;;;10.3;unknown
73422;BME280;61637;47.760;-122.022;2023-05-07T05:42:01;101591.7;;;10.3;unknown
73422;BME280;61637;47.760;-122.022;2023-05-07T05:44:01;101591.7;;;10.3;unknown
73422;BME280;61637;47.760;-122.022;2023-05-07T05:46:01;101591.7;;;10.3;unknown
73422;BME280;61637;47.760;-122.022;2023-05-07T05:48:01;101591.7;;;10.3;unknown
73422;BME280;61637;47.760;-122.022;2023-05-07T05:50:01;101591.7;;;10.3;unknown
73422;BME280;61637;47.760;-122.022;2023-05-07T05:52:01;101591.7;;;10.3;unknown
73422;BME280;61637;47.760;-122.022;2023-05-07T05:54:01;101591.7;;;10.3;unknown
73422;BME280;61637;47.760;-122.022;2023-05-07T05:56:01;101591.7;;;10.3;unknown
73422;BME280;61637;47.760;-122.022;2023-05-07T05:58:01;101591.7;;;10.2;unknown
73422;BME280;61637;47.760;-122.022;2023-05-07T06:00:01;101591.7;;;10.2;unknown
73422;BME280;61637;47.760;-122.022;2023-05-07T06:02:01;101591.7;;;10.2;unknown
73422;BME280;61637;47.760;-122.022;2023-05-07T06:04:01;101591.7;;;10.2;unknown
73422;BME280;61637;47.760;-122.022;2023-05-07T06:06:01;101591.7;;;10.2;unknown
73422;BME280;61637;47.760;-122.022;2023-05-07T06:08:01;101591.7;;;10.2;unknown
73422;BME280;61637;47.760;-122.022;2023-05-07T06:10:01;101591.7;;;10.2;unknown
73422;BME280;61637;47.760;-122.022;2023-05-07T06:12:01;101591.7;;;10.2;unknown
73422;BME280;61637;47.760;-122.022;2023-05-07T06:14:01;101591.7;;;10.2;unknown
73422;BME280;61637;47.760;-122.022;2023-05-07T06:16:01;101591.7;;;10.1;unknown
73422;BME280;61637;47.760;-122.022;2023-05-07T06:18:01;101591.7;;;10.1;unknown
73422;BME280;61637;47.760;-122.022;2023-05-07T06:20:01;101591.7;;;10.1;unknown
73422;BME280;61637;47.760;-122.022;2023-05-07T06:22:01;101591.7;;;10.1;unknown
73422;BME280;61637;47.760;-122.022;2023-05-07T06:24:01;101591.7;;;10.0;unknown
73422;BME280;61637;47.760;-122.022;2023-05-07T06:26:01;101591.7;;;10.0;unknown
73422;BME280;61637;47.760;-122.022;2023-05-07T06:28:01;101591.7;;;9.9;unknown
73422;BME280;61637;47.760;-122.022;2023-05-07T06:30:01;101591.7;;;9.9;unknown
73422;BME280;61637;47.760;-122.022;2023-05-07T06:32:06;101591.7;;;9.8;unknown
73422;BME280;61637;47.760;-122.022;2023-05-07T06:34:01;101591.7;;;9.8;unknown
73422;BME280;61637;47.760;-122.022;2023-05-07T06:36:01;101591.7;;;9.8;unknown
73422;BME280;61637;47.760;-122.022;2023-05-07T06:38:01;101591.7;;;9.7;unknown
73422;BME280;61637;47.760;-122.022;2023-05-07T06:40:01;101591.7;;;9.7;unknown
73422;BME280;61637;47.760;-122.022;2023-05-07T06:42:01;101591.7;;;9.7;unknown
73422;BME280;61637;47.760;-122.022;2023-05-07T06:44:01;101591.7;;;9.7;unknown
73422;BME280;61637;47.760;-122.022;2023-05-07T06:46:01;101591.7;;;9.6;unknown
73422;BME280;61637;47.760;-122.022;2023-05-07T06:48:01;101591.7;;;9.6;unknown
73422;BME280;61637;47.760;-122.022;2023-05-07T06:50:01;101591.7;;;9.6;unknown
73422;BME280;61637;47.760;-122.022;2023-05-07T06:52:01;101591.7;;;9.6;unknown
73422;BME280;61637;47.760;-122.022;2023-05-07T06:54:01;101591.7;;;9.6;unknown
73422;BME280;61637;47.760;-122.022;2023-05-07T06:56:01;101591.7;;;9.6;unknown
73422;BME280;61637;47.760;-122.022;2023-05-07T06:58:01;101591.7;;;9.6;unknown
73422;BME280;61637;47.760;-122.022;2023-05-07T07:00:01;101591.7;;;9.5;unknown
73422;BME280;61637;47.760;-122.022;2023-05-07T07:02:01;101591.7;;;9.5;unknown
73422;BME280;61637;47.760;-122.022;2023-05-07T07:04:01;101591.7;;;9.5;unknown
73422;BME280;61637;47.760;-122.022;2023-05-07T07:06:01;101591.7;;;9.5;unknown
73422;BME280;61637;47.760;-122.022;2023-05-07T07:08:01;101591.7;;;9.5;unknown
73422;BME280;61637;47.760;-122.022;2023-05-07T07:10:01;101591.7;;;9.4;unknown
73422;BME280;61637;47.760;-122.022;2023-05-07T07:12:01;101591.7;;;9.4;unknown
73422;BME280;61637;47.760;-122.022;2023-05-07T07:14:01;101591.7;;;9.4;unknown
73422;BME280;61637;47.760;-122.022;2023-05-07T07:16:01;101591.7;;;9.4;unknown
73422;BME280;61637;47.760;-122.022;2023-05-07T07:18:01;101591.7;;;9.4;unknown
73422;BME280;61637;47.760;-122.022;2023-05-07T07:20:01;101591.7;;;9.4;unknown
73422;BME280;61637;47.760;-122.022;2023-05-07T07:22:01;101591.7;;;9.3;unknown
73422;BME280;61637;47.760;-122.022;2023-05-07T07:24:01;101591.7;;;9.3;unknown
73422;BME280;61637;47.760;-122.022;2023-05-07T07:26:01;101591.7;;;9.3;unknown
73422;BME280;61637;47.760;-122.022;2023-05-07T07:28:01;101591.7;;;9.3;unknown
73422;BME280;61637;47.760;-122.022;2023-05-07T07:30:01;101591.7;;;9.3;unknown
73422;BME280;61637;47.760;-122.022;2023-05-07T07:32:01;101591.7;;;9.2;unknown
73422;BME280;61637;47.760;-122.022;2023-05-07T07:34:01;101591.7;;;9.2;unknown
73422;BME280;61637;47.760;-122.022;2023-05-07T07:36:01;101591.7;;;9.2;unknown
73422;BME280;61637;47.760;-122.022;2023-05-07T07:38:01;101591.7;;;9.2;unknown
73422;BME280;61637;47.760;-122.022;2023-05-07T07:40:01;101591.7;;;9.2;unknown
73422;BME280;61637;47.760;-122.022;2023-05-07T07:42:01;101591.7;;;9.1;unknown
73422;BME280;61637;47.760;-122.022;2023-05-07T07:44:02;101591.7;;;9.1;unknown
73422;BME280;61637;47.760;-122.022;2023-05-07T07:46:01;101591.7;;;9.1;unknown
73422;BME280;61637;47.760;-122.022;2023-05-07T07:48:01;101591.7;;;9.1;unknown
73422;BME280;61637;47.760;-122.022;2023-05-07T07:50:01;101591.7;;;9.0;unknown
73422;BME280;61637;47.760;-122.022;2023-05-07T07:52:01;101591.7;;;8.9;unknown
73422;BME280;61637;47.760;-122.022;2023-05-07T07:54:01;101591.7;;;8.9;unknown
73422;BME280;61637;47.760;-122.022;2023-05-07T07:56:01;101591.7;;;8.9;unknown
73422;BME280;61637;47.760;-122.022;2023-05-07T07:58:01;101591.7;;;8.9;unknown
73422;BME280;61637;47.760;-122.022;2023-05-07T08:00:01;101591.7;;;8.9;unknown
73422;BME280;61637;47.760;-122.022;2023-05-07T08:02:01;101591.7;;;8.8;unknown
73422;BME280;61637;47.760;-122.022;2023-05-07T08:04:01;101591.7;;;8.8;unknown
73422;BME280;61637;47.760;-122.022;2023-05-07T08:06:01;101591.7;;;8.8;unknown
73422;BME280;61637;47.760;-122.022;2023-05-07T08:08:01;101591.7;;;8.8;unknown
73422;BME280;61637;47.760;-122.022;2023-05-07T08:10:01;101591.7;;;8.8;unknown
73422;BME280;61637;47.760;-122.022;2023-05-07T08:12:01;101591.7;;;8.7;unknown
73422;BME280;61637;47.760;-122.022;2023-05-07T08:14:01;101591.7;;;8.7;unknown
73422;BME280;61637;47.760;-122.022;2023-05-07T08:16:01;101591.7;;;8.7;unknown
73422;BME280;61637;47.760;-122.022;2023-05-07T08:18:01;101591.7;;;8.7;unknown
73422;BME280;61637;47.760;-122.022;2023-05-07T08:20:01;101591.7;;;8.7;unknown
73422;BME280;61637;47.760;-122.022;2023-05-07T08:22:01;101591.7;;;8.7;unknown
73422;BME280;61637;47.760;-122.022;2023-05-07T08:24:01;101591.7;;;8.7;unknown
73422;BME280;61637;47.760;-122.022;2023-05-07T08:26:01;101591.7;;;8.6;unknown
73422;BME280;61637;47.760;-122.022;2023-05-07T08:28:01;101591.7;;;8.6;unknown
73422;BME280;61637;47.760;-122.022;2023-05-07T08:30:01;101591.7;;;8.6;unknown
73422;BME280;61637;47.760;-122.022;2023-05-07T08:32:01;101591.7;;;8.6;unknown
73422;BME280;61637;47.760;-122.022;2023-05-07T08:34:01;101591.7;;;8.6;unknown
73422;BME280;61637;47.760;-122.022;2023-05-07T08:36:01;101591.7;;;8.6;unknown
73422;BME280;61637;47.760;-122.022;2023-05-07T08:38:01;101591.7;;;8.6;unknown
73422;BME280;61637;47.760;-122.022;2023-05-07T08:40:01;101591.7;;;8.6;unknown
73422;BME280;61637;47.760;-122.022;2023-05-07T08:42:01;101591.7;;;8.6;unknown
73422;BME280;61637;47.760;-122.022;2023-05-07T08:44:01;101591.7;;;8.6;unknown
73422;BME280;61637;47.760;-122.022;2023-05-07T08:46:01;101591.7;;;8.6;unknown
73422;BME280;61637;47.760;-122.022;2023-05-07T08:48:02;101591.7;;;8.6;unknown
73422;BME280;61637;47.760;-122.022;2023-05-07T08:50:01;101591.7;;;8.7;unknown
73422;BME280;61637;47.760;-122.022;2023-05-07T08:52:01;101591.7;;;8.7;unknown
73422;BME280;61637;47.760;-122.022;2023-05-07T08:54:01;101591.7;;;8.7;unknown
73422;BME280;61637;47.760;-122.022;2023-05-07T08:56:01;101591.7;;;8.8;unknown
73422;BME280;61637;47.760;-122.022;2023-05-07T08:58:01;101591.7;;;8.8;unknown
73422;BME280;61637;47.760;-122.022;2023-05-07T09:00:01;101591.7;;;8.8;unknown
73422;BME280;61637;47.760;-122.022;2023-05-07T09:02:01;101591.7;;;8.8;unknown
73422;BME280;61637;47.760;-122.022;2023-05-07T09:04:01;101591.7;;;8.8;unknown
73422;BME280;61637;47.760;-122.022;2023-05-07T09:06:01;101591.7;;;8.8;unknown
73422;BME280;61637;47.760;-122.022;2023-05-07T09:08:01;101591.7;;;8.8;unknown
73422;BME280;61637;47.760;-122.022;2023-05-07T09:10:02;101591.7;;;8.7;unknown
73422;BME280;61637;47.760;-122.022;2023-05-07T09:12:01;101591.7;;;8.7;unknown
73422;BME280;61637;47.760;-122.022;2023-05-07T09:14:01;101591.7;;;8.7;unknown
73422;BME280;61637;47.760;-122.022;2023-05-07T09:16:09;101591.7;;;8.7;unknown
73422;BME280;61637;47.760;-122.022;2023-05-07T09:18:01;101591.7;;;8.7;unknown
73422;BME280;61637;47.760;-122.022;2023-05-07T09:20:02;101591.7;;;8.7;unknown
73422;BME280;61637;47.760;-122.022;2023-05-07T09:22:01;101591.7;;;8.7;unknown
73422;BME280;61637;47.760;-122.022;2023-05-07T09:24:01;101591.7;;;8.7;unknown
73422;BME280;61637;47.760;-122.022;2023-05-07T09:26:01;101930.339;;;8.7;unknown
73422;BME280;61637;47.760;-122.022;2023-05-07T09:28:01;101591.7;;;8.7;unknown
73422;BME280;61637;47.760;-122.022;2023-05-07T09:30:03;101930.339;;;8.7;unknown
73422;BME280;61637;47.760;-122.022;2023-05-07T09:32:01;101591.7;;;8.7;unknown
73422;BME280;61637;47.760;-122.022;2023-05-07T09:34:01;101591.7;;;8.7;unknown
73422;BME280;61637;47.760;-122.022;2023-05-07T09:36:02;101591.7;;;8.7;unknown
73422;BME280;61637;47.760;-122.022;2023-05-07T09:38:01;101591.7;;;8.7;unknown
73422;BME280;61637;47.760;-122.022;2023-05-07T09:40:01;101591.7;;;8.7;unknown
73422;BME280;61637;47.760;-122.022;2023-05-07T09:42:01;101591.7;;;8.7;unknown
73422;BME280;61637;47.760;-122.022;2023-05-07T09:44:01;101930.339;;;8.7;unknown
73422;BME280;61637;47.760;-122.022;2023-05-07T09:46:06;101930.339;;;8.7;unknown
73422;BME280;61637;47.760;-122.022;2023-05-07T09:48:01;101930.339;;;8.7;unknown
73422;BME280;61637;47.760;-122.022;2023-05-07T09:50:01;101930.339;;;8.7;unknown
73422;BME280;61637;47.760;-122.022;2023-05-07T09:52:01;101930.339;;;8.7;unknown
73422;BME280;61637;47.760;-122.022;2023-05-07T09:54:01;101930.339;;;8.7;unknown
73422;BME280;61637;47.760;-122.022;2023-05-07T09:56:01;101930.339;;;8.7;unknown
73422;BME280;61637;47.760;-122.022;2023-05-07T09:58:01;101930.339;;;8.7;unknown
73422;BME280;61637;47.760;-122.022;2023-05-07T10:00:01;101930.339;;;8.7;unknown
73422;BME280;61637;47.760;-122.022;2023-05-07T10:02:01;101930.339;;;8.7;unknown
73422;BME280;61637;47.760;-122.022;2023-05-07T10:04:01;101591.7;;;8.6;unknown